createdAt,value
2022-11-19T00:01:34.548Z,97038.00
2022-11-19T00:04:02.314Z,97042.00
2022-11-19T00:06:31.508Z,97042.00
2022-11-19T00:08:59.294Z,97047.00
2022-11-19T00:11:46.726Z,97053.00
2022-11-19T00:14:16.975Z,97050.00
2022-11-19T00:16:46.389Z,97038.00
2022-11-19T00:19:14.560Z,97038.00
2022-11-19T00:21:43.702Z,97040.00
2022-11-19T00:24:11.502Z,97041.00
2022-11-19T00:26:39.294Z,97046.00
2022-11-19T00:29:07.174Z,97051.00
2022-11-19T00:31:34.917Z,97054.00
2022-11-19T00:34:02.850Z,97048.00
2022-11-19T00:36:31.624Z,97063.00
2022-11-19T00:39:00.878Z,97051.00
2022-11-19T00:41:28.663Z,97065.00
2022-11-19T00:43:56.387Z,97066.00
2022-11-19T00:46:28.871Z,97062.00
2022-11-19T00:48:59.664Z,97060.00
2022-11-19T00:51:29.730Z,97065.00
2022-11-19T00:53:59.747Z,97072.00
2022-11-19T00:56:28.809Z,97061.00
2022-11-19T00:58:57.278Z,97063.00
2022-11-19T01:01:26.827Z,97072.00
2022-11-19T01:03:55.352Z,97076.00
2022-11-19T01:06:25.478Z,97077.00
2022-11-19T01:08:54.468Z,97079.00
2022-11-19T01:11:26.571Z,97080.00
2022-11-19T01:13:54.932Z,97093.00
2022-11-19T01:16:25.769Z,97082.00
2022-11-19T01:18:54.289Z,97092.00
2022-11-19T01:21:25.431Z,97088.00
2022-11-19T01:23:53.285Z,97091.00
2022-11-19T01:26:23.186Z,97092.00
2022-11-19T01:28:52.264Z,97089.00
2022-11-19T01:31:23.971Z,97094.00
2022-11-19T01:33:52.316Z,97091.00
2022-11-19T01:36:22.996Z,97100.00
2022-11-19T01:38:51.884Z,97102.00
2022-11-19T01:41:21.210Z,97108.00
2022-11-19T01:43:52.724Z,97107.00
2022-11-19T01:46:22.882Z,97103.00
2022-11-19T01:48:56.550Z,97118.00
2022-11-19T01:51:27.837Z,97115.00
2022-11-19T01:53:59.280Z,97126.00
2022-11-19T01:56:29.489Z,97126.00
2022-11-19T01:59:06.152Z,97120.00
2022-11-19T02:01:34.356Z,97131.00
2022-11-19T02:04:04.028Z,97128.00
2022-11-19T02:06:33.189Z,97128.00
2022-11-19T02:09:00.997Z,97128.00
2022-11-19T02:12:01.365Z,97129.00
2022-11-19T02:15:16.505Z,97120.00
2022-11-19T02:18:04.802Z,97119.00
2022-11-19T02:20:46.658Z,97123.00
2022-11-19T02:23:50.937Z,97132.00
2022-11-19T02:27:06.385Z,97136.00
2022-11-19T02:30:08.313Z,97132.00
2022-11-19T02:32:47.582Z,97123.00
2022-11-19T02:35:24.089Z,97128.00
2022-11-19T02:38:01.681Z,97137.00
2022-11-19T02:40:35.122Z,97136.00
2022-11-19T02:43:15.316Z,97140.00
2022-11-19T02:45:50.328Z,97135.00
2022-11-19T02:48:24.782Z,97131.00
2022-11-19T02:50:56.961Z,97141.00
2022-11-19T02:53:24.946Z,97134.00
2022-11-19T02:56:06.844Z,97139.00
2022-11-19T02:58:52.855Z,97141.00
2022-11-19T03:01:41.322Z,97142.00
2022-11-19T03:04:29.529Z,97142.00
2022-11-19T03:07:00.951Z,97143.00
2022-11-19T03:09:31.784Z,97138.00
2022-11-19T03:12:10.981Z,97141.00
2022-11-19T03:15:12.206Z,97132.00
2022-11-19T03:18:01.762Z,97137.00
2022-11-19T03:20:35.436Z,97137.00
2022-11-19T03:23:11.804Z,97141.00
2022-11-19T03:25:48.018Z,97143.00
2022-11-19T03:28:23.923Z,97155.00
2022-11-19T03:30:55.054Z,97161.00
2022-11-19T03:33:30.718Z,97158.00
2022-11-19T03:36:06.443Z,97161.00
2022-11-19T03:38:42.094Z,97150.00
2022-11-19T03:41:13.540Z,97164.00
2022-11-19T03:43:46.778Z,97164.00
2022-11-19T03:46:19.511Z,97174.00
2022-11-19T03:48:53.665Z,97172.00
2022-11-19T03:51:29.059Z,97176.00
2022-11-19T03:53:57.184Z,97183.00
2022-11-19T03:56:29.642Z,97189.00
2022-11-19T03:59:00.634Z,97189.00
2022-11-19T04:01:28.254Z,97189.00
2022-11-19T04:04:14.757Z,97186.00
2022-11-19T04:06:42.689Z,97184.00
2022-11-19T04:09:10.444Z,97188.00
2022-11-19T04:11:38.277Z,97193.00
2022-11-19T04:14:06.152Z,97201.00
2022-11-19T04:16:33.838Z,97202.00
2022-11-19T04:19:02.945Z,97202.00
2022-11-19T04:21:30.709Z,97206.00
2022-11-19T04:23:58.488Z,97210.00
2022-11-19T04:26:26.262Z,97208.00
2022-11-19T04:28:54.262Z,97206.00
2022-11-19T04:31:22.043Z,97202.00
2022-11-19T04:33:49.808Z,97201.00
2022-11-19T04:36:18.888Z,97203.00
2022-11-19T04:38:46.588Z,97203.00
2022-11-19T04:41:14.351Z,97203.00
2022-11-19T04:43:42.052Z,97206.00
2022-11-19T04:46:09.949Z,97208.00
2022-11-19T04:48:37.721Z,97211.00
2022-11-19T04:51:05.584Z,97206.00
2022-11-19T04:53:34.641Z,97204.00
2022-11-19T04:56:02.405Z,97213.00
2022-11-19T04:58:30.270Z,97213.00
2022-11-19T05:00:58.084Z,97208.00
2022-11-19T05:03:25.888Z,97207.00
2022-11-19T05:05:54.010Z,97212.00
2022-11-19T05:08:22.149Z,97210.00
2022-11-19T05:10:51.401Z,97197.00
2022-11-19T05:13:19.225Z,97202.00
2022-11-19T05:15:47.628Z,97202.00
2022-11-19T05:18:15.835Z,97203.00
2022-11-19T05:20:43.614Z,97215.00
2022-11-19T05:23:11.361Z,97209.00
2022-11-19T05:25:39.077Z,97219.00
2022-11-19T05:28:08.249Z,97215.00
2022-11-19T05:30:36.076Z,97208.00
2022-11-19T05:33:03.966Z,97210.00
2022-11-19T05:35:32.196Z,97211.00
2022-11-19T05:38:00.090Z,97218.00
2022-11-19T05:40:27.899Z,97214.00
2022-11-19T05:42:55.632Z,97212.00
2022-11-19T05:45:24.695Z,97203.00
2022-11-19T05:47:56.180Z,97200.00
2022-11-19T05:50:24.292Z,97206.00
2022-11-19T05:52:52.332Z,97201.00
2022-11-19T05:55:20.811Z,97204.00
2022-11-19T05:57:48.576Z,97207.00
2022-11-19T06:00:18.049Z,97211.00
2022-11-19T06:02:47.345Z,97219.00
2022-11-19T06:05:15.434Z,97207.00
2022-11-19T06:07:43.236Z,97208.00
2022-11-19T06:10:11.812Z,97212.00
2022-11-19T06:12:44.181Z,97214.00
2022-11-19T06:15:14.193Z,97215.00
2022-11-19T06:17:43.026Z,97210.00
2022-11-19T06:20:12.769Z,97218.00
2022-11-19T06:22:40.871Z,97223.00
2022-11-19T06:25:09.828Z,97228.00
2022-11-19T06:27:37.581Z,97228.00
2022-11-19T06:30:06.943Z,97231.00
2022-11-19T06:32:34.871Z,97223.00
2022-11-19T06:35:02.704Z,97228.00
2022-11-19T06:37:32.085Z,97228.00
2022-11-19T06:39:59.937Z,97229.00
2022-11-19T06:42:50.962Z,97233.00
2022-11-19T06:45:19.217Z,97237.00
2022-11-19T06:47:49.932Z,97243.00
2022-11-19T06:50:18.168Z,97253.00
2022-11-19T06:52:47.267Z,97248.00
2022-11-19T06:55:15.447Z,97254.00
2022-11-19T06:57:43.247Z,97258.00
2022-11-19T07:00:13.189Z,97262.00
2022-11-19T07:02:41.033Z,97264.00
2022-11-19T07:05:09.567Z,97260.00
2022-11-19T07:07:37.390Z,97263.00
2022-11-19T07:10:08.205Z,97268.00
2022-11-19T07:12:35.932Z,97270.00
2022-11-19T07:15:04.977Z,97284.00
2022-11-19T07:17:33.233Z,97282.00
2022-11-19T07:20:00.972Z,97280.00
2022-11-19T07:22:28.778Z,97286.00
2022-11-19T07:24:56.498Z,97292.00
2022-11-19T07:27:25.607Z,97306.00
2022-11-19T07:29:53.343Z,97306.00
2022-11-19T07:32:21.132Z,97305.00
2022-11-19T07:34:48.847Z,97305.00
2022-11-19T07:37:16.562Z,97311.00
2022-11-19T07:39:46.799Z,97318.00
2022-11-19T07:42:32.262Z,97310.00
2022-11-19T07:45:01.365Z,97310.00
2022-11-19T07:47:29.141Z,97317.00
2022-11-19T07:49:56.849Z,97311.00
2022-11-19T07:52:25.567Z,97304.00
2022-11-19T07:54:53.372Z,97307.00
2022-11-19T07:57:24.636Z,97307.00
2022-11-19T07:59:55.023Z,97301.00
2022-11-19T08:02:24.125Z,97305.00
2022-11-19T08:04:51.842Z,97304.00
2022-11-19T08:07:19.819Z,97299.00
2022-11-19T08:09:47.575Z,97299.00
2022-11-19T08:12:15.286Z,97307.00
2022-11-19T08:14:43.253Z,97302.00
2022-11-19T08:17:28.455Z,97302.00
2022-11-19T08:19:57.491Z,97310.00
2022-11-19T08:22:25.437Z,97309.00
2022-11-19T08:24:53.153Z,97305.00
2022-11-19T08:27:20.894Z,97308.00
2022-11-19T08:29:48.605Z,97314.00
2022-11-19T08:32:16.447Z,97314.00
2022-11-19T08:34:44.183Z,97319.00
2022-11-19T08:37:14.040Z,97332.00
2022-11-19T08:39:42.041Z,97328.00
2022-11-19T08:42:28.478Z,97328.00
2022-11-19T08:44:56.264Z,97333.00
2022-11-19T08:47:24.044Z,97342.00
2022-11-19T08:49:51.754Z,97337.00
2022-11-19T08:52:20.813Z,97341.00
2022-11-19T08:54:48.590Z,97350.00
2022-11-19T08:57:16.305Z,97347.00
2022-11-19T08:59:44.005Z,97361.00
2022-11-19T09:02:11.953Z,97354.00
2022-11-19T09:04:39.698Z,97357.00
2022-11-19T09:07:07.486Z,97353.00
2022-11-19T09:09:36.597Z,97358.00
2022-11-19T09:12:04.539Z,97354.00
2022-11-19T09:14:32.330Z,97352.00
2022-11-19T09:17:00.085Z,97364.00
2022-11-19T09:19:27.906Z,97360.00
2022-11-19T09:21:55.598Z,97374.00
2022-11-19T09:24:23.329Z,97366.00
2022-11-19T09:26:53.234Z,97378.00
2022-11-19T09:29:21.379Z,97381.00
2022-11-19T09:31:49.180Z,97380.00
2022-11-19T09:34:17.140Z,97379.00
2022-11-19T09:36:45.305Z,97381.00
2022-11-19T09:39:13.278Z,97376.00
2022-11-19T09:41:51.082Z,97377.00
2022-11-19T09:45:02.526Z,97372.00
2022-11-19T09:47:49.039Z,97370.00
2022-11-19T09:50:20.985Z,97369.00
2022-11-19T09:52:55.020Z,97366.00
2022-11-19T09:55:33.280Z,97372.00
2022-11-19T09:58:05.177Z,97372.00
2022-11-19T10:00:34.861Z,97386.00
2022-11-19T10:03:12.149Z,97377.00
2022-11-19T10:05:58.959Z,97375.00
2022-11-19T10:08:45.108Z,97382.00
2022-11-19T10:11:30.072Z,97376.00
2022-11-19T10:14:11.754Z,97370.00
2022-11-19T10:16:58.772Z,97371.00
2022-11-19T10:19:47.108Z,97376.00
2022-11-19T10:22:21.668Z,97366.00
2022-11-19T10:25:01.811Z,97361.00
2022-11-19T10:27:37.605Z,97369.00
2022-11-19T10:30:15.268Z,97371.00
2022-11-19T10:32:56.707Z,97365.00
2022-11-19T10:35:31.277Z,97369.00
2022-11-19T10:38:02.815Z,97361.00
2022-11-19T10:40:39.289Z,97361.00
2022-11-19T10:43:23.159Z,97360.00
2022-11-19T10:45:51.950Z,97362.00
2022-11-19T10:48:23.686Z,97362.00
2022-11-19T10:50:52.350Z,97363.00
2022-11-19T10:53:28.501Z,97356.00
2022-11-19T10:56:01.068Z,97364.00
2022-11-19T10:58:35.708Z,97363.00
2022-11-19T11:01:08.855Z,97362.00
2022-11-19T11:03:47.517Z,97360.00
2022-11-19T11:06:15.379Z,97352.00
2022-11-19T11:08:52.002Z,97354.00
2022-11-19T11:11:51.243Z,97363.00
2022-11-19T11:14:39.721Z,97363.00
2022-11-19T11:17:20.420Z,97354.00
2022-11-19T11:20:04.476Z,97354.00
2022-11-19T11:22:33.888Z,97348.00
2022-11-19T11:25:06.998Z,97338.00
2022-11-19T11:27:36.675Z,97344.00
2022-11-19T11:30:17.207Z,97340.00
2022-11-19T11:32:45.369Z,97337.00
2022-11-19T11:35:35.932Z,97344.00
2022-11-19T11:38:06.076Z,97331.00
2022-11-19T11:40:33.906Z,97337.00
2022-11-19T11:43:01.935Z,97328.00
2022-11-19T11:45:34.372Z,97328.00
2022-11-19T11:48:08.454Z,97332.00
2022-11-19T11:50:38.375Z,97335.00
2022-11-19T11:53:10.392Z,97340.00
2022-11-19T11:55:39.618Z,97334.00
2022-11-19T11:58:26.856Z,97351.00
2022-11-19T12:00:56.689Z,97354.00
2022-11-19T12:03:24.926Z,97346.00
2022-11-19T12:06:07.463Z,97357.00
2022-11-19T12:08:51.211Z,97352.00
2022-11-19T12:11:26.168Z,97345.00
2022-11-19T12:14:04.307Z,97338.00
2022-11-19T12:16:57.112Z,97339.00
2022-11-19T12:20:19.108Z,97323.00
2022-11-19T12:23:07.908Z,97329.00
2022-11-19T12:25:42.506Z,97332.00
2022-11-19T12:28:38.401Z,97341.00
2022-11-19T12:31:29.666Z,97329.00
2022-11-19T12:34:25.687Z,97332.00
2022-11-19T12:37:08.275Z,97325.00
2022-11-19T12:39:52.344Z,97327.00
2022-11-19T12:42:44.761Z,97331.00
2022-11-19T12:45:25.365Z,97338.00
2022-11-19T12:48:30.640Z,97334.00
2022-11-19T12:51:08.716Z,97341.00
2022-11-19T12:54:28.939Z,97333.00
2022-11-19T12:57:24.178Z,97333.00
2022-11-19T13:00:12.863Z,97325.00
2022-11-19T13:02:53.000Z,97332.00
2022-11-19T13:05:25.635Z,97333.00
2022-11-19T13:07:59.644Z,97324.00
2022-11-19T13:10:36.878Z,97315.00
2022-11-19T13:13:10.008Z,97328.00
2022-11-19T13:15:44.182Z,97322.00
2022-11-19T13:18:18.711Z,97326.00
2022-11-19T13:20:53.074Z,97329.00
2022-11-19T13:23:27.678Z,97330.00
2022-11-19T13:26:01.726Z,97332.00
2022-11-19T13:28:43.068Z,97334.00
2022-11-19T13:31:24.848Z,97329.00
2022-11-19T13:33:59.556Z,97331.00
2022-11-19T13:36:35.289Z,97328.00
2022-11-19T13:39:15.513Z,97331.00
2022-11-19T13:42:09.154Z,97336.00
2022-11-19T13:44:41.459Z,97337.00
2022-11-19T13:47:16.748Z,97338.00
2022-11-19T13:49:51.100Z,97343.00
2022-11-19T13:52:29.054Z,97348.00
2022-11-19T13:54:59.270Z,97341.00
2022-11-19T13:57:32.374Z,97348.00
2022-11-19T14:00:06.413Z,97346.00
2022-11-19T14:03:08.104Z,97349.00
2022-11-19T14:06:08.828Z,97348.00
2022-11-19T14:09:01.633Z,97345.00
2022-11-19T14:12:08.880Z,97346.00
2022-11-19T14:15:16.254Z,97343.00
2022-11-19T14:18:11.143Z,97339.00
2022-11-19T14:21:00.132Z,97341.00
2022-11-19T14:24:05.310Z,97340.00
2022-11-19T14:27:20.831Z,97343.00
2022-11-19T14:30:01.748Z,97350.00
2022-11-19T14:32:43.974Z,97351.00
2022-11-19T14:35:39.972Z,97346.00
2022-11-19T14:38:45.389Z,97350.00
2022-11-19T14:41:29.649Z,97353.00
2022-11-19T14:44:25.098Z,97349.00
2022-11-19T14:46:53.036Z,97348.00
2022-11-19T14:49:38.788Z,97350.00
2022-11-19T14:52:22.394Z,97355.00
2022-11-19T14:54:56.812Z,97355.00
2022-11-19T14:57:31.049Z,97359.00
2022-11-19T15:00:02.884Z,97354.00
2022-11-19T15:02:40.061Z,97357.00
2022-11-19T15:05:19.845Z,97362.00
2022-11-19T15:07:56.290Z,97351.00
2022-11-19T15:10:30.494Z,97354.00
2022-11-19T15:13:21.241Z,97357.00
2022-11-19T15:15:53.777Z,97362.00
2022-11-19T15:19:13.245Z,97359.00
2022-11-19T15:22:32.379Z,97358.00
2022-11-19T15:25:30.998Z,97364.00
2022-11-19T15:28:24.417Z,97351.00
2022-11-19T15:31:25.579Z,97354.00
2022-11-19T15:34:38.567Z,97355.00
2022-11-19T15:37:20.552Z,97364.00
2022-11-19T15:39:53.561Z,97371.00
2022-11-19T15:42:31.420Z,97360.00
2022-11-19T15:45:05.532Z,97365.00
2022-11-19T15:47:42.056Z,97360.00
2022-11-19T15:50:24.737Z,97353.00
2022-11-19T15:53:00.532Z,97355.00
2022-11-19T15:55:31.870Z,97359.00
2022-11-19T15:58:15.474Z,97360.00
2022-11-19T16:00:46.938Z,97352.00
2022-11-19T16:03:16.014Z,97349.00
2022-11-19T16:05:51.566Z,97355.00
2022-11-19T16:08:19.381Z,97359.00
2022-11-19T16:11:08.284Z,97363.00
2022-11-19T16:13:55.178Z,97372.00
2022-11-19T16:16:46.092Z,97373.00
2022-11-19T16:19:15.878Z,97373.00
2022-11-19T16:21:48.581Z,97368.00
2022-11-19T16:24:37.948Z,97364.00
2022-11-19T16:27:12.813Z,97379.00
2022-11-19T16:29:44.369Z,97386.00
2022-11-19T16:32:18.383Z,97384.00
2022-11-19T16:34:47.609Z,97391.00
2022-11-19T16:37:17.781Z,97394.00
2022-11-19T16:39:53.260Z,97397.00
2022-11-19T16:42:26.848Z,97396.00
2022-11-19T16:45:05.819Z,97401.00
2022-11-19T16:47:37.494Z,97407.00
2022-11-19T16:50:08.001Z,97406.00
2022-11-19T16:52:41.711Z,97411.00
2022-11-19T16:55:51.377Z,97409.00
2022-11-19T16:58:26.268Z,97403.00
2022-11-19T17:00:59.588Z,97403.00
2022-11-19T17:03:35.662Z,97403.00
2022-11-19T17:06:05.742Z,97392.00
2022-11-19T17:08:37.498Z,97392.00
2022-11-19T17:11:37.908Z,97399.00
2022-11-19T17:14:14.165Z,97407.00
2022-11-19T17:16:48.033Z,97403.00
2022-11-19T17:19:28.103Z,97419.00
2022-11-19T17:22:03.140Z,97412.00
2022-11-19T17:24:34.886Z,97407.00
2022-11-19T17:27:02.663Z,97401.00
2022-11-19T17:29:30.503Z,97389.00
2022-11-19T17:31:59.823Z,97397.00
2022-11-19T17:34:33.790Z,97399.00
2022-11-19T17:37:01.646Z,97407.00
2022-11-19T17:39:29.378Z,97409.00
2022-11-19T17:42:15.487Z,97424.00
2022-11-19T17:44:43.428Z,97418.00
2022-11-19T17:47:22.330Z,97426.00
2022-11-19T17:49:50.960Z,97428.00
2022-11-19T17:52:24.977Z,97423.00
2022-11-19T17:54:58.628Z,97423.00
2022-11-19T17:57:27.925Z,97436.00
2022-11-19T17:59:55.840Z,97433.00
2022-11-19T18:02:25.130Z,97422.00
2022-11-19T18:04:53.262Z,97438.00
2022-11-19T18:07:21.095Z,97438.00
2022-11-19T18:09:48.863Z,97439.00
2022-11-19T18:12:19.756Z,97436.00
2022-11-19T18:14:48.084Z,97437.00
2022-11-19T18:17:16.863Z,97441.00
2022-11-19T18:19:45.919Z,97440.00
2022-11-19T18:22:19.632Z,97440.00
2022-11-19T18:24:49.159Z,97434.00
2022-11-19T18:27:17.625Z,97446.00
2022-11-19T18:29:45.441Z,97442.00
2022-11-19T18:32:15.898Z,97440.00
2022-11-19T18:34:45.415Z,97448.00
2022-11-19T18:37:14.161Z,97436.00
2022-11-19T18:39:42.082Z,97445.00
2022-11-19T18:42:12.252Z,97444.00
2022-11-19T18:44:41.622Z,97441.00
2022-11-19T18:47:12.446Z,97440.00
2022-11-19T18:49:40.549Z,97436.00
2022-11-19T18:52:15.557Z,97435.00
2022-11-19T18:54:43.517Z,97426.00
2022-11-19T18:57:12.369Z,97438.00
2022-11-19T18:59:41.453Z,97439.00
2022-11-19T19:02:10.978Z,97434.00
2022-11-19T19:04:38.795Z,97450.00
2022-11-19T19:07:06.593Z,97448.00
2022-11-19T19:09:37.343Z,97456.00
2022-11-19T19:12:21.452Z,97450.00
2022-11-19T19:14:51.872Z,97446.00
2022-11-19T19:17:20.564Z,97451.00
2022-11-19T19:19:49.067Z,97449.00
2022-11-19T19:22:16.969Z,97448.00
2022-11-19T19:24:46.890Z,97456.00
2022-11-19T19:27:14.936Z,97456.00
2022-11-19T19:29:43.304Z,97446.00
2022-11-19T19:32:11.037Z,97448.00
2022-11-19T19:34:38.763Z,97448.00
2022-11-19T19:37:06.946Z,97449.00
2022-11-19T19:39:34.869Z,97462.00
2022-11-19T19:42:04.006Z,97455.00
2022-11-19T19:44:31.800Z,97455.00
2022-11-19T19:46:59.671Z,97461.00
2022-11-19T19:49:27.858Z,97462.00
2022-11-19T19:51:55.824Z,97461.00
2022-11-19T19:54:23.625Z,97448.00
2022-11-19T19:56:52.566Z,97461.00
2022-11-19T19:59:21.848Z,97468.00
2022-11-19T20:01:50.809Z,97473.00
2022-11-19T20:04:18.932Z,97481.00
2022-11-19T20:06:48.837Z,97486.00
2022-11-19T20:09:16.955Z,97487.00
2022-11-19T20:11:44.701Z,97484.00
2022-11-19T20:14:12.575Z,97478.00
2022-11-19T20:16:42.799Z,97476.00
2022-11-19T20:19:15.076Z,97482.00
2022-11-19T20:21:43.624Z,97483.00
2022-11-19T20:24:13.494Z,97484.00
2022-11-19T20:26:43.169Z,97485.00
2022-11-19T20:29:14.682Z,97486.00
2022-11-19T20:31:48.179Z,97483.00
2022-11-19T20:34:17.782Z,97472.00
2022-11-19T20:36:45.993Z,97469.00
2022-11-19T20:39:14.037Z,97475.00
2022-11-19T20:41:59.980Z,97478.00
2022-11-19T20:44:27.881Z,97480.00
2022-11-19T20:46:58.851Z,97474.00
2022-11-19T20:49:29.462Z,97482.00
2022-11-19T20:51:59.005Z,97482.00
2022-11-19T20:54:28.855Z,97477.00
2022-11-19T20:56:57.939Z,97480.00
2022-11-19T20:59:28.568Z,97478.00
2022-11-19T21:01:58.502Z,97480.00
2022-11-19T21:04:28.445Z,97474.00
2022-11-19T21:06:57.228Z,97476.00
2022-11-19T21:09:25.816Z,97462.00
2022-11-19T21:11:54.150Z,97469.00
2022-11-19T21:14:22.016Z,97467.00
2022-11-19T21:16:49.759Z,97478.00
2022-11-19T21:19:19.690Z,97468.00
2022-11-19T21:21:48.286Z,97473.00
2022-11-19T21:24:16.934Z,97467.00
2022-11-19T21:26:45.422Z,97471.00
2022-11-19T21:29:13.604Z,97469.00
2022-11-19T21:31:44.347Z,97458.00
2022-11-19T21:34:15.585Z,97462.00
2022-11-19T21:36:46.842Z,97456.00
2022-11-19T21:39:16.382Z,97464.00
2022-11-19T21:41:45.546Z,97459.00
2022-11-19T21:44:18.286Z,97458.00
2022-11-19T21:46:47.515Z,97453.00
2022-11-19T21:49:16.731Z,97450.00
2022-11-19T21:51:46.482Z,97457.00
2022-11-19T21:54:14.384Z,97453.00
2022-11-19T21:56:42.439Z,97454.00
2022-11-19T21:59:10.324Z,97447.00
2022-11-19T22:01:38.337Z,97452.00
2022-11-19T22:04:07.084Z,97455.00
2022-11-19T22:06:35.197Z,97450.00
2022-11-19T22:09:04.949Z,97450.00
2022-11-19T22:11:33.059Z,97448.00
2022-11-19T22:14:04.228Z,97456.00
2022-11-19T22:16:33.379Z,97466.00
2022-11-19T22:19:02.462Z,97469.00
2022-11-19T22:21:30.400Z,97466.00
2022-11-19T22:23:58.592Z,97470.00
2022-11-19T22:26:28.986Z,97464.00
2022-11-19T22:28:58.758Z,97463.00
2022-11-19T22:31:27.298Z,97456.00
2022-11-19T22:33:55.550Z,97444.00
2022-11-19T22:36:24.768Z,97444.00
2022-11-19T22:38:53.455Z,97446.00
2022-11-19T22:41:23.715Z,97446.00
2022-11-19T22:43:53.158Z,97451.00
2022-11-19T22:46:21.733Z,97445.00
2022-11-19T22:48:49.827Z,97447.00
2022-11-19T22:51:20.557Z,97446.00
2022-11-19T22:53:49.612Z,97441.00
2022-11-19T22:56:21.344Z,97443.00
2022-11-19T22:58:50.281Z,97446.00
2022-11-19T23:01:23.857Z,97446.00
2022-11-19T23:03:52.695Z,97449.00
2022-11-19T23:06:21.157Z,97446.00
2022-11-19T23:08:48.890Z,97444.00
2022-11-19T23:11:41.327Z,97447.00
2022-11-19T23:14:11.583Z,97444.00
2022-11-19T23:16:42.226Z,97445.00
2022-11-19T23:19:12.050Z,97440.00
2022-11-19T23:21:40.939Z,97438.00
2022-11-19T23:24:10.440Z,97439.00
2022-11-19T23:26:38.377Z,97442.00
2022-11-19T23:29:06.358Z,97448.00
2022-11-19T23:31:37.648Z,97455.00
2022-11-19T23:34:07.757Z,97460.00
2022-11-19T23:36:38.713Z,97464.00
2022-11-19T23:39:08.114Z,97455.00
2022-11-19T23:41:35.950Z,97444.00
2022-11-19T23:44:03.988Z,97454.00
2022-11-19T23:46:33.917Z,97455.00
2022-11-19T23:49:03.177Z,97444.00
2022-11-19T23:51:35.528Z,97429.00
2022-11-19T23:54:04.795Z,97443.00
2022-11-19T23:56:35.689Z,97443.00
2022-11-19T23:59:04.942Z,97443.00
